シドニー国際空港の過去48時間の天気

シドニー国際空港 (Sydney Airport)

現在時刻: 9/23 08:54 AEST (9/22 22:54 UTC) 以下の時間は現地時間です。

過去48時間のMETAR気象情報
時間 風向 風速(m/s) 視程 気温(℃) 湿度(%) 気圧(hPa) 天気現象
23 08:30 西北西 6 10km以上 16 55 1020
23 08:00 西北西 5 10km以上 15 55 1020
23 07:30 西北西 5 10km以上 14 63 1020
23 07:00 西北西 5 10km以上 12 77 1020
23 06:30 北西 4 10km以上 12 77 1020
23 06:00 北西 5 10km以上 11 82 1020
23 05:30 西北西 4 10km以上 10 87 1020
23 05:00 北西 5 10km以上 11 82 1019
23 04:30 北西 4 10km以上 10 87 1019
23 04:00 北西 4 10km以上 11 82 1019
23 03:30 北西 4 10km以上 11 82 1020
23 03:00 西北西 4 10km以上 11 82 1020
23 02:30 北西 4 10km以上 11 82 1020
23 02:00 北西 4 10km以上 11 82 1020
23 01:30 北西 3 10km以上 12 77 1021
23 01:00 北西 3 10km以上 12 77 1021
23 00:30 西北西 3 10km以上 12 82 1022
23 00:00 西 2 10km以上 12 82 1022
22 23:30 北西 3 10km以上 13 77 1022
22 23:00 北西 3 10km以上 13 77 1022
22 22:30 西北西 3 10km以上 13 77 1022
22 22:00 西北西 3 10km以上 14 72 1022
22 21:30 西 3 10km以上 14 77 1022
22 21:00 西 2 10km以上 14 77 1022
22 20:30 静穏 0 10km以上 14 77 1022
22 20:00 静穏 0 10km以上 15 72 1022
22 19:30 2 10km以上 14 72 1022
22 19:00 東南東 2 10km以上 15 67 1022
22 18:30 東南東 3 10km以上 15 67 1022
22 18:00 南東 4 10km以上 15 67 1021
22 17:30 南東 4 10km以上 16 63 1021
22 17:00 東南東 4 10km以上 16 63 1021
22 16:30 南東 4 10km以上 16 63 1021
22 16:00 南南東 5 10km以上 16 63 1021
22 15:30 南南東 5 10km以上 16 63 1021
22 15:00 7 10km以上 16 63 1021
22 14:30 南南東 7 10km以上 16 59 1021
22 14:00 南南東 8 10km以上 17 55 1022
22 13:30 南南東 8 10km以上 16 63 1022
22 13:00 8 10km以上 16 63 1022
22 12:30 南南東 8 10km以上 16 59 1023
22 12:00 8 10km以上 17 55 1023
22 11:30 7 10km以上 17 55 1023
22 11:00 7 10km以上 16 55 1023
22 10:30 7 10km以上 16 55 1023
22 10:00 6 10km以上 16 55 1023
22 09:30 南西 5 10km以上 16 51 1023
22 09:00 西南西 6 10km以上 15 51 1023
22 08:30 西南西 6 10km以上 14 59 1023
22 08:00 西 5 10km以上 13 54 1023
22 07:30 西 5 10km以上 11 62 1023
22 07:00 西 4 10km以上 10 66 1023
22 06:30 西 5 10km以上 9 71 1023
22 06:00 西南西 5 10km以上 9 71 1022
22 05:30 西 6 10km以上 9 71 1022
22 05:00 西 7 10km以上 9 76 1022
22 04:30 西南西 6 10km以上 9 81 1022
22 04:00 西南西 7 10km以上 9 76 1022
22 03:30 西南西 6 10km以上 10 76 1022
22 03:00 南西 8 10km以上 10 76 1022
22 02:30 南西 7 10km以上 11 76 1022
22 02:00 南西 6 10km以上 10 82 1022
22 01:30 西南西 4 10km以上 10 82 1022 周辺でしゅう雨
22 01:00 西南西 5 10km以上 11 76 1023 弱いしゅう雨
22 00:30 西南西 7 10km以上 11 82 1023 弱いしゅう雨
22 00:00 10 10km以上 12 82 1023 弱いしゅう雨
21 23:30 南西 9 10km以上 12 82 1023 弱いしゅう雨
21 23:00 南南西 8 10km以上 12 77 1023 弱いしゅう雨
21 22:30 南西 9 10km以上 12 77 1023 弱いしゅう雨
21 22:00 南南西 9 10km以上 12 77 1023 弱いしゅう雨
21 21:30 南南西 9 10km以上 14 67 1023
21 21:00 11 10km以上 14 67 1022 周辺でしゅう雨
21 20:30 10 10km以上 14 72 1022 周辺でしゅう雨
21 20:00 12 10km以上 14 72 1021
21 19:30 11 10km以上 15 63 1021
21 19:00 12 10km以上 14 67 1020
21 18:30 12 10km以上 14 63 1020
21 18:00 12 10km以上 15 63 1020
21 17:30 12 10km以上 14 63 1019
21 17:00 13 10km以上 15 59 1019
21 16:30 13 10km以上 15 55 1018
21 16:00 南南西 13 10km以上 15 51 1018 周辺でしゅう雨
21 15:30 14 10km以上 15 59 1018
21 15:18 12 10km以上 15 59 1018 しゅう雨
21 15:00 14 10km以上 15 59 1017 周辺でしゅう雨
21 14:30 14 10km以上 15 55 1017 周辺でしゅう雨
21 14:17 14 10km以上 15 55 1017 しゅう雨 煙霧
21 14:00 15 10km以上 15 59 1017 周辺でしゅう雨
21 13:30 12 10km以上 15 55 1017 しゅう雨
21 13:00 13 10km以上 15 55 1017
21 12:48 13 10km以上 15 59 1016
21 12:30 13 10km以上 15 51 1016
21 12:06 12 10km以上 15 51 1016
21 11:47 11 10km以上 15 48 1016
21 11:30 南南西 11 10km以上 14 47 1016
21 11:00 南南西 10 10km以上 14 47 1016
21 10:30 南南西 10 10km以上 13 58 1016
21 10:00 南南西 11 10km以上 13 54 1016
21 09:30 南南西 10 10km以上 13 54 1016
21 09:08 南南西 8 10km以上 13 47 1016
YSSY 222230Z 29011KT CAVOK 16/07 Q1020
YSSY 222200Z 29010KT CAVOK 15/06 Q1020
YSSY 222130Z 30009KT CAVOK 14/07 Q1020
YSSY 222100Z 30009KT CAVOK 12/08 Q1020
YSSY 222030Z 31008KT CAVOK 12/08 Q1020
YSSY 222000Z 31009KT CAVOK 11/08 Q1020
YSSY 221930Z 30007KT CAVOK 10/08 Q1020
YSSY 221900Z 31009KT CAVOK 11/08 Q1019
YSSY 221830Z 31007KT CAVOK 10/08 Q1019
YSSY 221800Z 32008KT CAVOK 11/08 Q1019
YSSY 221730Z 31008KT CAVOK 11/08 Q1020
YSSY 221700Z 30007KT CAVOK 11/08 Q1020
YSSY 221630Z 31007KT CAVOK 11/08 Q1020
YSSY 221600Z 31007KT CAVOK 11/08 Q1020
YSSY 221530Z 31006KT CAVOK 12/08 Q1021
YSSY 221500Z 31006KT CAVOK 12/08 Q1021
YSSY 221430Z 29005KT CAVOK 12/09 Q1022
YSSY 221400Z 28004KT CAVOK 12/09 Q1022
YSSY 221330Z 31005KT CAVOK 13/09 Q1022
YSSY 221300Z 31005KT CAVOK 13/09 Q1022
YSSY 221230Z 29005KT CAVOK 13/09 Q1022
YSSY 221200Z 29006KT CAVOK 14/09 Q1022
YSSY 221130Z 27005KT CAVOK 14/10 Q1022
YSSY 221100Z 26004KT CAVOK 14/10 Q1022
YSSY 221030Z 00000KT CAVOK 14/10 Q1022
YSSY 221000Z 00000KT CAVOK 15/10 Q1022
YSSY 220930Z 18003KT CAVOK 14/09 Q1022
YSSY 220900Z 12004KT CAVOK 15/09 Q1022
YSSY 220830Z 11005KT CAVOK 15/09 Q1022
YSSY 220800Z 13007KT CAVOK 15/09 Q1021
YSSY 220730Z 13008KT CAVOK 16/09 Q1021
YSSY 220700Z 12008KT CAVOK 16/09 Q1021
YSSY 220630Z 14008KT CAVOK 16/09 Q1021
YSSY 220600Z 15009KT CAVOK 16/09 Q1021
YSSY 220530Z 15010KT CAVOK 16/09 Q1021
YSSY 220500Z 17013KT CAVOK 16/09 Q1021
YSSY 220430Z 16014KT CAVOK 16/08 Q1021
YSSY 220400Z 16015KT CAVOK 17/08 Q1022
YSSY 220330Z 16015KT CAVOK 16/09 Q1022
YSSY 220300Z 17015KT CAVOK 16/09 Q1022
YSSY 220230Z 16016KT CAVOK 16/08 Q1023
YSSY 220200Z 17016KT CAVOK 17/08 Q1023
YSSY 220130Z 18013KT CAVOK 17/08 Q1023
YSSY 220100Z 18013KT 9999 FEW048 16/07 Q1023
YSSY 220030Z 18014KT CAVOK 16/07 Q1023
YSSY 220000Z 19011KT CAVOK 16/07 Q1023
YSSY 212330Z 23009KT CAVOK 16/06 Q1023
YSSY 212300Z 24011KT CAVOK 15/05 Q1023
YSSY 212230Z 25012KT 9999 FEW045 14/06 Q1023
YSSY 212200Z 27010KT 9999 FEW045 13/04 Q1023
YSSY 212130Z 26009KT 9999 FEW040 11/04 Q1023
YSSY 212100Z 26008KT 9999 FEW030 10/04 Q1023
YSSY 212030Z 28009KT 9999 FEW030 09/04 Q1023
YSSY 212000Z 25010KT 9999 FEW025 09/04 Q1022
YSSY 211930Z 27011KT 9999 FEW025 09/04 Q1022
YSSY 211900Z 26013KT 9999 FEW025 09/05 Q1022
YSSY 211830Z 25011KT 9999 FEW020 09/06 Q1022
YSSY 211800Z 25013KT 9999 FEW020 09/05 Q1022
YSSY 211730Z 24011KT 9999 FEW020 10/06 Q1022
YSSY 211700Z 23015KT 9999 FEW020 10/06 Q1022
YSSY 211630Z 22013KT 9999 FEW020 11/07 Q1022
YSSY 211600Z 23011KT 9999 FEW020 10/07 Q1022
YSSY 211530Z 24008KT 9999 VCSH FEW020 BKN080 10/07 Q1022
YSSY 211500Z 24009KT 9999 -SHRA FEW020 SCT050 11/07 Q1023
YSSY 211430Z 24014KT 9999 -SHRA FEW020 BKN050 11/08 Q1023
YSSY 211400Z 19019G29KT 9999 -SHRA FEW015 SCT025 BKN050 12/09 Q1023
YSSY 211330Z 22017G27KT 9999 -SHRA FEW015 SCT030 BKN050 12/09 Q1023
YSSY 211300Z 21016KT 9999 -SHRA FEW015 SCT030 BKN050 12/08 Q1023
YSSY 211230Z 22018KT 9999 -SHRA FEW015 SCT030 BKN050 12/08 Q1023
YSSY 211200Z 21018G28KT 9999 -SHRA FEW020 BKN045 12/08 Q1023
YSSY 211130Z 20018G28KT 9999 FEW025 BKN080 14/08 Q1023 RF00/0/000/0
YSSY 211100Z 18021KT 9999 VCSH FEW025 BKN080 14/08 Q1022
YSSY 211030Z 19019G29KT 9999 VCSH FEW025 BKN080 14/09 Q1022
YSSY 211000Z 17023KT 9999 FEW030 SCT090 14/09 Q1021
YSSY 210930Z 18022KT 9999 FEW030 15/08 Q1021
YSSY 210900Z 17024KT 9999 FEW040 14/08 Q1020
YSSY 210830Z 18024KT 9999 FEW040 14/07 Q1020
YSSY 210800Z 19023KT 9999 FEW040 15/08 Q1020
YSSY 210730Z 19024KT 9999 FEW045 14/07 Q1019
YSSY 210700Z 19025KT 9999 FEW040 15/07 Q1019
YSSY 210630Z 19025KT 9999 FEW045 SCT100 15/06 Q1018
YSSY 210600Z 20026G36KT 9999 VCSH SCT045 SCT100 15/05 Q1018
YSSY 210530Z 19027KT 9999 SCT044 SCT100 15/07 Q1018
YSSY 210518Z 19024G34KT 9999 SCT044 SCT100 15/07 Q1018 RF00/0/000/0 SHRA TO NW
YSSY 210500Z 19027KT 9999 VCSH FEW040 SCT100 15/07 Q1017
YSSY 210430Z 19028G39KT 9999 VCSH FEW040 SCT070 15/06 Q1017
YSSY 210417Z 19028G40KT 9999 FEW040 SCT055 15/06 Q1017 RF00/0/000/0 HZ SHRA TO SE
YSSY 210400Z 18029KT 9999 VCSH FEW042 SCT055 15/07 Q1017
YSSY 210330Z 18024G34KT 9999 FEW045 SCT060 15/06 Q1017 RF00/0/000/0 DIST SHRA TO SE
YSSY 210300Z 18025G35KT 9999 FEW045 SCT065 15/06 Q1017 RF00/0/000/0
YSSY 210248Z 18025G35KT 9999 FEW045 SCT055 15/07 Q1016 RF00.0/000.0
YSSY 210230Z 18026KT 9999 FEW045 SCT060 15/05 Q1016 WS RWY25
YSSY 210206Z 19023G33KT 9999 FEW045 SCT055 15/05 Q1016 RF00/0/000/0
YSSY 210147Z 19021G31KT 9999 FEW045 SCT055 BKN100 15/04 Q1016
YSSY 210130Z 20021KT 9999 FEW045 SCT075 BKN100 14/03 Q1016
YSSY 210100Z 20020KT 9999 FEW045 SCT070 BKN100 14/03 Q1016
YSSY 210030Z 20019KT 9999 FEW040 BKN070 13/05 Q1016
YSSY 210000Z 20021KT 9999 FEW040 SCT075 BKN100 13/04 Q1016
YSSY 202330Z 20020G31KT 9999 FEW045 SCT070 BKN095 13/04 Q1016
YSSY 202308Z 21016G26KT 9999 FEW045 SCT070 13/02 Q1016 RF00/0/000/0